Aviation Digital Data Service (ADDS)

Output produced by METARs form (1739 UTC 27 May 2017)
found at http://www.aviationweather.gov/adds/metars/
 
TAF HADR 271020Z 2712/2818 08004KT 8000 -HZ SCT027 SCT080 
     BECMG 2718/2722 16006KT
       
HAAB 271600Z 11010KT 8000 FEW024 CB BKN025 SCT080 21/10 Q1024
TAF HAAB 271020Z 2712/2818 12004KT 9000 RA/TSRA FEW025CB BKN070 
     BECMG 2804/2807 30004KT 7000 HZ